createdAt,value
2022-08-18T00:01:50.319Z,23.65
2022-08-18T00:04:35.598Z,23.71
2022-08-18T00:07:07.647Z,23.68
2022-08-18T00:09:37.154Z,23.69
2022-08-18T00:12:09.756Z,23.68
2022-08-18T00:14:36.980Z,23.68
2022-08-18T00:17:04.477Z,23.67
2022-08-18T00:19:46.333Z,23.68
2022-08-18T00:22:16.772Z,23.63
2022-08-18T00:24:48.653Z,23.56
2022-08-18T00:27:23.617Z,23.58
2022-08-18T00:29:53.110Z,23.56
2022-08-18T00:32:24.036Z,23.55
2022-08-18T00:34:53.196Z,23.56
2022-08-18T00:37:21.830Z,23.52
2022-08-18T00:39:52.592Z,23.54
2022-08-18T00:42:27.664Z,23.52
2022-08-18T00:45:01.657Z,23.49
2022-08-18T00:47:41.700Z,23.47
2022-08-18T00:50:22.073Z,23.40
2022-08-18T00:53:20.022Z,23.40
2022-08-18T00:55:54.394Z,23.37
2022-08-18T00:58:47.132Z,23.36
2022-08-18T01:01:17.414Z,23.36
2022-08-18T01:03:53.221Z,23.39
2022-08-18T01:06:28.623Z,23.35
2022-08-18T01:08:56.275Z,23.26
2022-08-18T01:11:23.439Z,23.25
2022-08-18T01:13:51.320Z,23.25
2022-08-18T01:16:37.841Z,23.25
2022-08-18T01:19:23.997Z,23.20
2022-08-18T01:21:58.099Z,23.24
2022-08-18T01:24:47.596Z,23.13
2022-08-18T01:27:18.933Z,23.09
2022-08-18T01:29:48.737Z,22.99
2022-08-18T01:32:20.399Z,22.95
2022-08-18T01:34:49.358Z,22.99
2022-08-18T01:37:20.198Z,23.03
2022-08-18T01:41:22.676Z,22.99
2022-08-18T01:42:36.650Z,22.99
2022-08-18T01:45:07.681Z,22.99
2022-08-18T01:47:47.619Z,23.00
2022-08-18T01:50:16.657Z,22.93
2022-08-18T01:52:44.006Z,22.99
2022-08-18T01:55:12.426Z,22.95
2022-08-18T01:57:45.223Z,23.00
2022-08-18T02:00:14.827Z,22.96
2022-08-18T02:02:42.333Z,22.88
2022-08-18T02:05:21.291Z,22.84
2022-08-18T02:07:48.435Z,22.74
2022-08-18T02:10:21.277Z,22.74
2022-08-18T02:12:48.444Z,22.71
2022-08-18T02:15:15.649Z,22.74
2022-08-18T02:17:45.285Z,22.74
2022-08-18T02:20:16.045Z,22.73
2022-08-18T02:22:43.511Z,22.76
2022-08-18T02:25:12.119Z,22.71
2022-08-18T02:27:39.484Z,22.69
2022-08-18T02:30:10.100Z,22.71
2022-08-18T02:32:37.577Z,22.70
2022-08-18T02:35:08.310Z,22.71
2022-08-18T02:37:42.126Z,22.71
2022-08-18T02:40:11.402Z,22.69
2022-08-18T02:42:43.072Z,22.54
2022-08-18T02:45:10.956Z,22.55
2022-08-18T02:47:38.077Z,22.59
2022-08-18T02:50:06.393Z,22.56
2022-08-18T02:52:35.249Z,22.52
2022-08-18T02:57:30.218Z,22.43
2022-08-18T02:59:57.796Z,22.50
2022-08-18T03:02:27.170Z,22.47
2022-08-18T03:04:54.297Z,22.55
2022-08-18T03:07:21.486Z,22.42
2022-08-18T03:09:48.692Z,22.36
2022-08-18T03:12:15.919Z,22.32
2022-08-18T03:14:43.806Z,22.34
2022-08-18T03:17:10.937Z,22.37
2022-08-18T03:19:38.418Z,22.39
2022-08-18T03:22:18.742Z,22.30
2022-08-18T03:24:56.219Z,22.19
2022-08-18T03:27:23.315Z,22.12
2022-08-18T03:29:51.461Z,22.10
2022-08-18T03:32:19.005Z,22.11
2022-08-18T03:34:46.276Z,22.11
2022-08-18T03:37:16.043Z,22.14
2022-08-18T03:39:43.362Z,22.21
2022-08-18T03:42:10.960Z,22.22
2022-08-18T03:44:38.139Z,22.22
2022-08-18T03:47:10.157Z,22.21
2022-08-18T03:49:38.005Z,22.13
2022-08-18T03:52:09.682Z,22.16
2022-08-18T03:54:39.103Z,22.11
2022-08-18T03:57:09.641Z,22.10
2022-08-18T03:59:37.638Z,22.10
2022-08-18T04:02:05.870Z,22.13
2022-08-18T04:04:33.922Z,22.19
2022-08-18T04:07:11.485Z,22.24
2022-08-18T04:09:39.297Z,22.27
2022-08-18T04:12:16.456Z,22.31
2022-08-18T04:14:48.583Z,22.33
2022-08-18T04:17:24.504Z,22.39
2022-08-18T04:19:55.916Z,22.41
2022-08-18T04:22:25.126Z,22.43
2022-08-18T04:24:53.281Z,22.45
2022-08-18T04:27:22.008Z,22.51
2022-08-18T04:29:49.705Z,22.50
2022-08-18T04:32:17.875Z,22.52
2022-08-18T04:34:45.161Z,22.53
2022-08-18T04:37:12.417Z,22.57
2022-08-18T04:39:39.711Z,22.66
2022-08-18T04:42:07.038Z,22.73
2022-08-18T04:44:38.033Z,22.80
2022-08-18T04:47:07.145Z,22.84
2022-08-18T04:49:34.257Z,22.90
2022-08-18T04:52:38.244Z,22.93
2022-08-18T04:55:09.945Z,22.91
2022-08-18T04:57:38.248Z,22.99
2022-08-18T05:00:08.513Z,23.00
2022-08-18T05:02:35.958Z,22.97
2022-08-18T05:05:04.504Z,23.01
2022-08-18T05:07:32.640Z,23.10
2022-08-18T05:09:59.933Z,23.14
2022-08-18T05:12:27.131Z,23.20
2022-08-18T05:14:57.250Z,23.28
2022-08-18T05:17:30.543Z,23.38
2022-08-18T05:20:01.403Z,23.45
2022-08-18T05:22:31.349Z,23.54
2022-08-18T05:25:00.332Z,23.53
2022-08-18T05:27:35.461Z,23.62
2022-08-18T05:30:03.985Z,23.64
2022-08-18T05:32:47.859Z,23.70
2022-08-18T05:35:25.445Z,23.72
2022-08-18T05:38:15.844Z,23.78
2022-08-18T05:40:44.325Z,23.85
2022-08-18T05:43:11.608Z,23.88
2022-08-18T05:45:41.103Z,23.93
2022-08-18T05:48:08.402Z,23.92
2022-08-18T05:50:38.079Z,23.92
2022-08-18T05:53:13.923Z,24.01
2022-08-18T05:56:06.984Z,24.06
2022-08-18T05:58:42.333Z,24.14
2022-08-18T06:01:23.021Z,24.21
2022-08-18T06:04:06.269Z,24.22
2022-08-18T06:06:36.776Z,24.27
2022-08-18T06:09:24.823Z,24.36
2022-08-18T06:12:09.927Z,24.43
2022-08-18T06:14:38.948Z,24.51
2022-08-18T06:17:24.397Z,24.58
2022-08-18T06:20:02.507Z,24.69
2022-08-18T06:22:52.633Z,24.79
2022-08-18T06:25:44.430Z,24.87
2022-08-18T06:28:17.202Z,24.97
2022-08-18T06:31:02.926Z,25.04
2022-08-18T06:33:39.728Z,25.19
2022-08-18T06:36:25.223Z,25.30
2022-08-18T06:39:29.267Z,25.42
2022-08-18T06:41:56.438Z,25.51
2022-08-18T06:44:39.273Z,25.54
2022-08-18T06:47:28.694Z,25.56
2022-08-18T06:50:00.770Z,25.60
2022-08-18T06:52:30.235Z,25.71
2022-08-18T06:55:00.185Z,25.85
2022-08-18T06:57:30.394Z,26.01
2022-08-18T07:00:00.205Z,26.22
2022-08-18T07:02:50.086Z,26.37
2022-08-18T07:05:31.021Z,26.51
2022-08-18T07:08:18.786Z,26.65
2022-08-18T07:10:49.445Z,26.78
2022-08-18T07:13:19.715Z,26.83
2022-08-18T07:15:48.727Z,26.90
2022-08-18T07:18:24.701Z,26.93
2022-08-18T07:21:02.177Z,26.95
2022-08-18T07:23:34.732Z,26.99
2022-08-18T07:26:08.954Z,27.06
2022-08-18T07:28:44.529Z,27.20
2022-08-18T07:31:19.828Z,27.32
2022-08-18T07:33:56.144Z,27.45
2022-08-18T07:36:27.390Z,27.60
2022-08-18T07:39:03.068Z,27.67
2022-08-18T07:41:41.961Z,27.81
2022-08-18T07:44:16.700Z,27.94
2022-08-18T07:47:05.418Z,28.04
2022-08-18T07:49:36.051Z,28.16
2022-08-18T07:52:36.217Z,28.25
2022-08-18T07:55:15.843Z,28.29
2022-08-18T07:57:51.149Z,28.33
2022-08-18T08:00:58.139Z,28.27
2022-08-18T08:03:51.978Z,28.35
2022-08-18T08:06:24.804Z,28.42
2022-08-18T08:09:00.130Z,28.54
2022-08-18T08:11:44.715Z,28.67
2022-08-18T08:14:32.882Z,28.76
2022-08-18T08:17:06.819Z,28.82
2022-08-18T08:20:00.474Z,28.89
2022-08-18T08:22:53.853Z,28.83
2022-08-18T08:28:36.888Z,28.78
2022-08-18T08:34:14.431Z,28.82
2022-08-18T08:36:45.619Z,28.87
2022-08-18T08:39:41.726Z,28.98
2022-08-18T08:42:30.736Z,29.07
2022-08-18T08:45:06.915Z,29.22
2022-08-18T08:48:06.839Z,29.29
2022-08-18T08:50:44.862Z,29.32
2022-08-18T08:53:11.890Z,29.35
2022-08-18T08:55:47.279Z,29.39
2022-08-18T08:58:26.838Z,29.48
2022-08-18T09:00:56.578Z,29.59
2022-08-18T09:03:41.828Z,29.78
2022-08-18T09:06:17.758Z,30.04
2022-08-18T09:09:05.393Z,30.27
2022-08-18T09:11:54.083Z,30.38
2022-08-18T09:14:32.459Z,30.50
2022-08-18T09:17:11.526Z,30.53
2022-08-18T09:19:47.658Z,30.61
2022-08-18T09:22:40.741Z,30.76
2022-08-18T09:25:30.278Z,30.71
2022-08-18T09:28:16.648Z,30.84
2022-08-18T09:31:08.688Z,30.90
2022-08-18T09:33:40.703Z,31.00
2022-08-18T09:36:21.469Z,30.99
2022-08-18T09:39:20.487Z,31.13
2022-08-18T09:42:03.386Z,31.31
2022-08-18T09:44:49.269Z,31.50
2022-08-18T09:47:22.333Z,31.62
2022-08-18T09:49:56.172Z,31.73
2022-08-18T09:52:24.497Z,31.79
2022-08-18T09:54:59.466Z,31.83
2022-08-18T09:57:27.375Z,31.94
2022-08-18T09:59:59.271Z,32.07
2022-08-18T10:02:29.614Z,32.19
2022-08-18T10:05:15.498Z,32.27
2022-08-18T10:07:45.376Z,32.19
2022-08-18T10:11:01.347Z,32.04
2022-08-18T10:13:32.618Z,31.87
2022-08-18T10:16:21.460Z,31.73
2022-08-18T10:19:18.601Z,31.74
2022-08-18T10:22:07.317Z,31.91
2022-08-18T10:24:56.480Z,32.15
2022-08-18T10:27:58.121Z,32.16
2022-08-18T10:30:34.619Z,32.06
2022-08-18T10:33:18.009Z,32.05
2022-08-18T10:35:59.103Z,32.14
2022-08-18T10:38:37.201Z,32.26
2022-08-18T10:41:21.468Z,32.32
2022-08-18T10:43:57.265Z,32.35
2022-08-18T10:46:32.683Z,32.36
2022-08-18T10:49:15.080Z,32.45
2022-08-18T10:52:08.610Z,32.47
2022-08-18T10:54:51.192Z,32.39
2022-08-18T10:58:14.712Z,32.50
2022-08-18T11:01:01.179Z,32.76
2022-08-18T11:04:00.109Z,32.92
2022-08-18T11:06:47.644Z,32.81
2022-08-18T11:09:25.727Z,32.76
2022-08-18T11:12:01.571Z,32.91
2022-08-18T11:14:52.581Z,32.89
2022-08-18T11:18:10.533Z,32.46
2022-08-18T11:20:40.242Z,32.40
2022-08-18T11:23:17.239Z,32.38
2022-08-18T11:25:45.168Z,32.41
2022-08-18T11:31:10.990Z,32.76
2022-08-18T11:33:42.314Z,32.69
2022-08-18T11:36:09.992Z,32.62
2022-08-18T11:38:39.465Z,32.52
2022-08-18T11:41:24.506Z,32.54
2022-08-18T11:44:02.806Z,32.63
2022-08-18T11:46:41.043Z,32.31
2022-08-18T11:49:18.179Z,32.01
2022-08-18T11:52:03.529Z,31.88
2022-08-18T11:54:50.757Z,31.63
2022-08-18T12:01:01.620Z,31.69
2022-08-18T12:03:45.013Z,31.92
2022-08-18T12:06:20.317Z,32.10
2022-08-18T12:09:04.484Z,32.19
2022-08-18T12:11:36.587Z,32.32
2022-08-18T12:14:29.829Z,32.38
2022-08-18T12:17:01.441Z,32.60
2022-08-18T12:19:34.241Z,32.66
2022-08-18T12:22:10.992Z,32.60
2022-08-18T12:27:31.975Z,32.65
2022-08-18T12:30:03.636Z,32.72
2022-08-18T12:32:46.894Z,32.77
2022-08-18T12:35:22.202Z,32.76
2022-08-18T12:38:13.700Z,32.75
2022-08-18T12:40:37.441Z,32.61
2022-08-18T12:43:06.214Z,32.28
2022-08-18T12:45:37.951Z,32.26
2022-08-18T12:48:06.820Z,32.29
2022-08-18T12:53:29.483Z,32.18
2022-08-18T12:56:27.024Z,32.05
2022-08-18T12:58:55.600Z,32.03
2022-08-18T13:01:25.226Z,32.07
2022-08-18T13:04:12.238Z,32.11
2022-08-18T13:06:59.814Z,32.18
2022-08-18T13:09:34.739Z,32.17
2022-08-18T13:12:16.614Z,32.22
2022-08-18T13:14:45.457Z,32.19
2022-08-18T13:17:30.159Z,32.23
2022-08-18T13:22:40.529Z,32.23
2022-08-18T13:25:32.869Z,32.22
2022-08-18T13:28:01.760Z,32.20
2022-08-18T13:30:32.148Z,32.16
2022-08-18T13:33:05.464Z,32.17
2022-08-18T13:35:54.485Z,32.16
2022-08-18T13:38:27.213Z,32.16
2022-08-18T13:40:58.731Z,32.10
2022-08-18T13:43:36.008Z,32.09
2022-08-18T13:46:06.410Z,32.09
2022-08-18T13:48:36.302Z,31.97
2022-08-18T13:51:05.657Z,31.85
2022-08-18T13:53:50.484Z,31.69
2022-08-18T13:56:31.558Z,31.49
2022-08-18T13:58:59.268Z,31.43
2022-08-18T14:01:45.156Z,31.46
2022-08-18T14:04:20.253Z,31.44
2022-08-18T14:06:56.387Z,31.44
2022-08-18T14:09:35.760Z,31.41
2022-08-18T14:12:22.956Z,31.41
2022-08-18T14:14:55.693Z,31.44
2022-08-18T14:17:25.860Z,31.41
2022-08-18T14:20:15.323Z,31.35
2022-08-18T14:23:11.365Z,31.45
2022-08-18T14:25:57.348Z,31.43
2022-08-18T14:28:28.831Z,31.34
2022-08-18T14:30:58.265Z,31.29
2022-08-18T14:33:49.384Z,31.24
2022-08-18T14:36:18.110Z,31.08
2022-08-18T14:38:45.733Z,31.11
2022-08-18T14:41:14.918Z,31.09
2022-08-18T14:44:10.970Z,31.04
2022-08-18T14:46:32.881Z,31.02
2022-08-18T14:49:03.748Z,30.95
2022-08-18T14:51:33.456Z,30.79
2022-08-18T14:54:01.687Z,30.80
2022-08-18T14:56:33.265Z,30.80
2022-08-18T14:59:07.770Z,30.75
2022-08-18T15:01:42.427Z,30.72
2022-08-18T15:04:18.690Z,30.69
2022-08-18T15:06:55.878Z,30.65
2022-08-18T15:09:26.899Z,30.63
2022-08-18T15:11:56.399Z,30.59
2022-08-18T15:14:33.092Z,30.56
2022-08-18T15:17:11.904Z,30.53
2022-08-18T15:20:00.331Z,30.50
2022-08-18T15:22:47.863Z,30.36
2022-08-18T15:25:34.161Z,30.35
2022-08-18T15:28:01.732Z,30.26
2022-08-18T15:30:29.331Z,30.21
2022-08-18T15:32:59.165Z,30.18
2022-08-18T15:35:31.830Z,30.16
2022-08-18T15:38:00.875Z,30.17
2022-08-18T15:40:35.854Z,30.17
2022-08-18T15:43:09.987Z,30.12
2022-08-18T15:45:43.509Z,30.18
2022-08-18T15:48:25.134Z,30.17
2022-08-18T15:50:52.535Z,30.15
2022-08-18T15:53:23.635Z,30.12
2022-08-18T15:55:50.969Z,30.10
2022-08-18T15:58:22.296Z,30.06
2022-08-18T16:00:50.552Z,30.03
2022-08-18T16:03:18.324Z,29.96
2022-08-18T16:05:54.218Z,29.97
2022-08-18T16:08:23.733Z,29.89
2022-08-18T16:10:51.428Z,29.93
2022-08-18T16:13:19.502Z,29.92
2022-08-18T16:15:48.430Z,29.91
2022-08-18T16:18:17.445Z,29.90
2022-08-18T16:20:45.431Z,29.86
2022-08-18T16:23:13.895Z,29.85
2022-08-18T16:25:43.302Z,29.83
2022-08-18T16:28:13.511Z,29.75
2022-08-18T16:30:41.571Z,29.76
2022-08-18T16:33:08.972Z,29.72
2022-08-18T16:35:37.846Z,29.66
2022-08-18T16:38:09.282Z,29.66
2022-08-18T16:40:37.718Z,29.58
2022-08-18T16:43:06.092Z,29.57
2022-08-18T16:45:36.376Z,29.53
2022-08-18T16:48:04.021Z,29.49
2022-08-18T16:50:31.181Z,29.43
2022-08-18T16:52:58.583Z,29.41
2022-08-18T16:55:26.945Z,29.36
2022-08-18T16:58:15.608Z,29.31
2022-08-18T17:01:02.000Z,29.22
2022-08-18T17:03:47.929Z,29.14
2022-08-18T17:06:18.404Z,28.97
2022-08-18T17:08:47.070Z,29.01
2022-08-18T17:11:17.992Z,28.98
2022-08-18T17:13:46.971Z,28.97
2022-08-18T17:16:16.199Z,28.93
2022-08-18T17:18:43.708Z,28.87
2022-08-18T17:21:13.402Z,28.84
2022-08-18T17:23:41.746Z,28.79
2022-08-18T17:26:23.523Z,28.72
2022-08-18T17:28:54.765Z,28.67
2022-08-18T17:31:24.820Z,28.64
2022-08-18T17:33:57.495Z,28.59
2022-08-18T17:36:39.180Z,28.49
2022-08-18T17:39:13.359Z,28.45
2022-08-18T17:42:02.647Z,28.42
2022-08-18T17:44:31.517Z,28.35
2022-08-18T17:47:00.719Z,28.26
2022-08-18T17:50:26.295Z,28.24
2022-08-18T17:52:53.403Z,28.15
2022-08-18T17:55:28.879Z,28.09
2022-08-18T17:58:14.718Z,28.04
2022-08-18T18:00:42.226Z,28.01
2022-08-18T18:03:12.776Z,27.98
2022-08-18T18:05:47.726Z,27.93
2022-08-18T18:08:14.819Z,27.84
2022-08-18T18:11:05.069Z,27.83
2022-08-18T18:13:34.141Z,27.79
2022-08-18T18:16:20.546Z,27.71
2022-08-18T18:19:00.933Z,27.69
2022-08-18T18:21:58.902Z,27.64
2022-08-18T18:24:28.678Z,27.57
2022-08-18T18:26:55.782Z,27.55
2022-08-18T18:29:37.106Z,27.51
2022-08-18T18:32:27.439Z,27.44
2022-08-18T18:35:21.047Z,27.35
2022-08-18T18:37:54.334Z,27.34
2022-08-18T18:40:54.331Z,27.28
2022-08-18T18:43:43.772Z,27.26
2022-08-18T18:46:19.074Z,27.20
2022-08-18T18:49:19.253Z,27.16
2022-08-18T18:52:11.642Z,27.13
2022-08-18T18:54:39.774Z,27.09
2022-08-18T18:57:12.933Z,27.05
2022-08-18T19:00:23.321Z,26.99
2022-08-18T19:03:16.432Z,26.88
2022-08-18T19:06:06.130Z,26.90
2022-08-18T19:08:45.532Z,26.85
2022-08-18T19:11:48.266Z,26.71
2022-08-18T19:14:22.188Z,26.77
2022-08-18T19:17:13.782Z,26.75
2022-08-18T19:19:47.659Z,26.70
2022-08-18T19:22:30.282Z,26.66
2022-08-18T19:25:05.497Z,26.61
2022-08-18T19:27:40.112Z,26.58
2022-08-18T19:30:12.935Z,26.56
2022-08-18T19:32:49.878Z,26.51
2022-08-18T19:35:47.247Z,26.50
2022-08-18T19:38:44.767Z,26.44
2022-08-18T19:41:30.348Z,26.39
2022-08-18T19:44:23.222Z,26.40
2022-08-18T19:46:57.654Z,26.36
2022-08-18T19:49:31.539Z,26.34
2022-08-18T19:52:05.940Z,26.26
2022-08-18T19:55:27.674Z,26.32
2022-08-18T19:58:53.363Z,26.26
2022-08-18T20:01:38.576Z,26.22
2022-08-18T20:04:26.382Z,26.19
2022-08-18T20:07:18.227Z,26.14
2022-08-18T20:09:59.211Z,26.12
2022-08-18T20:12:39.984Z,26.09
2022-08-18T20:15:13.017Z,26.06
2022-08-18T20:17:58.315Z,26.01
2022-08-18T20:20:29.968Z,25.98
2022-08-18T20:22:59.884Z,25.95
2022-08-18T20:25:39.067Z,25.94
2022-08-18T20:28:11.907Z,25.93
2022-08-18T20:30:38.970Z,25.93
2022-08-18T20:33:14.894Z,25.91
2022-08-18T20:36:14.309Z,25.90
2022-08-18T20:38:45.819Z,25.86
2022-08-18T20:41:43.549Z,25.88
2022-08-18T20:44:29.233Z,25.86
2022-08-18T20:47:34.635Z,25.84
2022-08-18T20:50:23.226Z,25.81
2022-08-18T20:53:24.336Z,25.78
2022-08-18T20:56:32.230Z,25.72
2022-08-18T20:59:20.315Z,25.71
2022-08-18T21:02:03.308Z,25.67
2022-08-18T21:04:41.210Z,25.70
2022-08-18T21:07:17.537Z,25.66
2022-08-18T21:10:12.900Z,25.69
2022-08-18T21:12:51.953Z,25.43
2022-08-18T21:15:21.267Z,25.62
2022-08-18T21:18:01.264Z,25.61
2022-08-18T21:20:29.969Z,25.59
2022-08-18T21:23:09.988Z,25.57
2022-08-18T21:25:41.215Z,25.50
2022-08-18T21:28:08.420Z,25.42
2022-08-18T21:30:35.622Z,25.48
2022-08-18T21:33:21.009Z,25.45
2022-08-18T21:35:48.665Z,25.39
2022-08-18T21:38:27.040Z,25.38
2022-08-18T21:41:00.166Z,25.37
2022-08-18T21:43:49.370Z,25.34
2022-08-18T21:46:29.377Z,25.28
2022-08-18T21:49:00.515Z,25.25
2022-08-18T21:51:42.314Z,25.20
2022-08-18T21:54:10.000Z,25.19
2022-08-18T21:56:37.733Z,25.15
2022-08-18T21:59:20.973Z,25.16
2022-08-18T22:01:54.723Z,25.10
2022-08-18T22:04:24.689Z,25.07
2022-08-18T22:06:58.494Z,25.06
2022-08-18T22:09:47.365Z,25.07
2022-08-18T22:12:42.851Z,25.07
2022-08-18T22:15:36.197Z,25.05
2022-08-18T22:18:06.610Z,25.04
2022-08-18T22:20:52.198Z,25.03
2022-08-18T22:23:46.631Z,25.00
2022-08-18T22:26:16.844Z,24.97
2022-08-18T22:29:13.453Z,24.96
2022-08-18T22:31:46.617Z,24.94
2022-08-18T22:34:27.038Z,24.94
2022-08-18T22:37:14.647Z,24.90
2022-08-18T22:39:52.961Z,24.90
2022-08-18T22:42:22.696Z,24.85
2022-08-18T22:44:50.304Z,24.86
2022-08-18T22:47:18.055Z,24.80
2022-08-18T22:49:45.400Z,24.77
2022-08-18T22:52:32.933Z,24.77
2022-08-18T22:55:03.849Z,24.75
2022-08-18T22:57:38.857Z,24.62
2022-08-18T23:00:13.464Z,24.68
2022-08-18T23:02:41.005Z,24.68
2022-08-18T23:05:08.457Z,24.59
2022-08-18T23:07:35.675Z,24.59
2022-08-18T23:10:03.178Z,24.58
2022-08-18T23:12:35.503Z,24.53
2022-08-18T23:15:09.820Z,24.49
2022-08-18T23:17:37.664Z,24.48
2022-08-18T23:20:09.379Z,24.41
2022-08-18T23:22:39.700Z,24.42
2022-08-18T23:25:09.412Z,24.37
2022-08-18T23:27:36.895Z,24.32
2022-08-18T23:30:05.335Z,24.29
2022-08-18T23:32:33.574Z,24.25
2022-08-18T23:35:01.107Z,24.20
2022-08-18T23:37:28.125Z,24.21
2022-08-18T23:39:56.088Z,24.15
2022-08-18T23:42:25.107Z,24.17
2022-08-18T23:44:52.243Z,24.07
2022-08-18T23:47:21.163Z,24.10
2022-08-18T23:49:48.538Z,24.11
2022-08-18T23:52:15.869Z,24.04
2022-08-18T23:54:43.013Z,23.97
2022-08-18T23:57:10.235Z,23.86
2022-08-18T23:59:37.213Z,23.89
